Time;durP1;ratioP1;P1;durP2;ratioP2;P2;SDS_P1;SDS_P2;PMS_P1;PMS_P2;Temp;Humidity;BMP_temperature;BMP_pressure;BME280_temperature;BME280_humidity;BME280_pressure;Samples;Min_cycle;Max_cycle;Signal;HPM_P1;HPM_P2
2021/07/05 00:02:11;;;;;;;11.68;6.85;;;564.10;2432.00;;;;;;4826934;29;20042;-83
2021/07/05 00:04:38;;;;;;;10.90;6.57;;;564.00;2432.00;;;;;;4827225;29;20029;-81
2021/07/05 00:07:04;;;;;;;12.02;6.97;;;563.90;2432.00;;;;;;4827162;29;20558;-82
2021/07/05 00:09:31;;;;;;;14.23;6.72;;;563.90;2432.00;;;;;;4834076;29;20037;-82
2021/07/05 00:11:57;;;;;;;8.82;6.18;;;563.60;2432.00;;;;;;4841071;29;20105;-82
2021/07/05 00:14:23;;;;;;;9.93;6.78;;;563.80;2432.00;;;;;;4841984;29;20050;-83
2021/07/05 00:16:50;;;;;;;12.35;6.75;;;563.80;2432.00;;;;;;4841912;29;20039;-82
2021/07/05 00:19:15;;;;;;;11.20;6.32;;;563.90;2432.00;;;;;;4842611;29;20030;-82
2021/07/05 00:21:42;;;;;;;13.10;6.63;;;563.60;2432.00;;;;;;4842629;29;20037;-84
2021/07/05 00:24:08;;;;;;;12.95;6.72;;;563.60;2432.00;;;;;;4842355;29;20030;-82
2021/07/05 00:26:34;;;;;;;12.13;6.95;;;563.60;2432.00;;;;;;4842591;29;20018;-83
2021/07/05 00:29:00;;;;;;;8.73;6.32;;;563.60;2432.00;;;;;;4843382;29;20056;-83
2021/07/05 00:31:26;;;;;;;9.93;6.32;;;563.60;2432.00;;;;;;4842706;29;20022;-83
2021/07/05 00:33:52;;;;;;;11.93;6.68;;;563.60;2432.00;;;;;;4841469;29;20029;-83
2021/07/05 00:36:19;;;;;;;8.85;5.50;;;563.60;2432.00;;;;;;4841125;29;20057;-82
2021/07/05 00:38:45;;;;;;;8.63;6.50;;;563.50;2432.00;;;;;;4843816;29;20037;-82
2021/07/05 00:41:11;;;;;;;11.30;6.95;;;563.50;2432.00;;;;;;4842984;29;20030;-83
2021/07/05 00:43:37;;;;;;;10.35;7.25;;;563.20;2432.00;;;;;;4837474;29;20034;-82
2021/07/05 00:46:03;;;;;;;9.05;6.13;;;563.70;2432.00;;;;;;4827253;29;20074;-83
2021/07/05 00:48:32;;;;;;;9.88;6.38;;;563.50;2432.00;;;;;;4844790;29;20056;-83
2021/07/05 00:50:58;;;;;;;10.50;6.30;;;563.50;2432.00;;;;;;4830694;29;20026;-82
2021/07/05 00:53:24;;;;;;;14.38;6.53;;;563.50;2432.00;;;;;;4830402;29;20029;-82
2021/07/05 00:55:50;;;;;;;11.70;6.35;;;563.40;2432.00;;;;;;4830272;29;20061;-82
2021/07/05 00:58:17;;;;;;;8.70;5.45;;;563.40;2432.00;;;;;;4830507;29;20082;-83
2021/07/05 01:00:44;;;;;;;9.52;6.15;;;563.70;2432.00;;;;;;4830410;29;20026;-83
2021/07/05 01:03:10;;;;;;;9.10;5.63;;;563.50;2432.00;;;;;;4830321;29;20063;-83
2021/07/05 01:05:37;;;;;;;7.65;5.35;;;563.40;2432.00;;;;;;4830397;29;20034;-83
2021/07/05 01:08:56;;;;;;;7.18;5.60;;;563.30;2432.00;;;;;;4830154;29;20131;-83
2021/07/05 01:11:25;;;;;;;8.63;6.05;;;563.20;2432.00;;;;;;4825304;29;20042;-84
2021/07/05 01:13:54;;;;;;;9.90;5.85;;;563.30;2432.00;;;;;;4830100;29;20423;-83
2021/07/05 01:16:23;;;;;;;9.23;6.05;;;563.30;2432.00;;;;;;4829506;29;20022;-83
2021/07/05 01:19:02;;;;;;;8.77;6.25;;;563.30;2432.00;;;;;;4830277;29;20034;-83
2021/07/05 01:21:31;;;;;;;7.95;6.18;;;563.30;2432.00;;;;;;4829745;29;20026;-84
2021/07/05 01:24:02;;;;;;;8.25;5.90;;;563.20;2432.00;;;;;;4829412;29;20033;-84
2021/07/05 01:27:25;;;;;;;8.10;5.93;;;563.20;2432.00;;;;;;4829962;29;20022;-85
2021/07/05 01:33:00;;;;;;;9.50;6.40;;;538.50;2406.40;;;;;;4836423;29;20039;-85
2021/07/05 01:35:34;;;;;;;9.57;5.75;;;538.50;2406.40;;;;;;4846035;29;20100;-84
2021/07/05 01:38:08;;;;;;;7.53;5.45;;;589.50;2432.00;;;;;;4829255;29;20021;-85
2021/07/05 01:40:45;;;;;;;10.43;5.80;;;538.50;2406.40;;;;;;4829104;29;20493;-85
2021/07/05 01:43:46;;;;;;;;;;;;;;;;;;;;;
2021/07/05 01:46:40;;;;;;;9.80;6.43;;;538.50;2406.40;;;;;;4845920;29;20044;-84
2021/07/05 01:52:05;;;;;;;12.18;8.60;;;538.40;2406.40;;;;;;4832049;29;20416;-84
2021/07/05 01:54:46;;;;;;;12.82;7.35;;;538.20;2406.40;;;;;;4829011;29;20117;-85
2021/07/05 01:57:27;;;;;;;10.65;6.72;;;538.10;2406.40;;;;;;4826941;29;20040;-85
2021/07/05 02:00:27;;;;;;;11.40;6.93;;;538.00;2406.40;;;;;;4829049;29;20022;-85
2021/07/05 02:03:25;;;;;;;12.70;8.30;;;537.90;2406.40;;;;;;4828469;29;20030;-86
2021/07/05 02:06:42;;;;;;;;;;;;;;;;;;;;;
2021/07/05 02:09:08;;;;;;;10.70;7.60;;;537.70;2406.40;;;;;;4845101;29;20048;-85
2021/07/05 02:11:35;;;;;;;10.95;7.60;;;512.10;2380.80;;;;;;4828635;29;20109;-85
2021/07/05 02:14:03;;;;;;;10.70;6.80;;;512.90;2380.80;;;;;;4829105;29;20463;-85
2021/07/05 02:16:29;;;;;;;12.70;6.97;;;537.70;2406.40;;;;;;4828835;29;20125;-85
2021/07/05 02:18:57;;;;;;;10.02;6.75;;;537.70;2406.40;;;;;;4828823;29;20121;-85
2021/07/05 02:21:23;;;;;;;12.20;7.18;;;537.70;2406.40;;;;;;4829042;29;20495;-85
2021/07/05 02:23:49;;;;;;;10.18;6.90;;;537.60;2406.40;;;;;;4828318;29;20057;-85
2021/07/05 02:26:15;;;;;;;10.25;6.82;;;537.60;2406.40;;;;;;4828592;29;20034;-85
2021/07/05 02:28:41;;;;;;;8.70;6.97;;;512.40;2380.80;;;;;;4828891;29;20025;-84
2021/07/05 02:31:09;;;;;;;10.77;6.93;;;537.70;2406.40;;;;;;4828459;29;20033;-85
2021/07/05 02:33:44;;;;;;;12.40;6.43;;;537.70;2406.40;;;;;;4828493;29;20399;-85
2021/07/05 02:36:26;;;;;;;16.77;6.70;;;537.70;2406.40;;;;;;4843715;29;20022;-85
2021/07/05 02:39:00;;;;;;;11.43;7.00;;;537.70;2406.40;;;;;;4828668;29;20116;-85
2021/07/05 02:41:26;;;;;;;11.57;6.80;;;537.70;2406.40;;;;;;4828502;29;20447;-85
2021/07/05 02:43:54;;;;;;;11.32;7.40;;;537.70;2406.40;;;;;;4828349;29;20029;-85
2021/07/05 02:46:25;;;;;;;11.73;7.05;;;537.70;2406.40;;;;;;4827968;29;20073;-85
2021/07/05 02:48:55;;;;;;;12.05;6.88;;;537.70;2406.40;;;;;;4828136;29;20095;-85
2021/07/05 02:51:40;;;;;;;11.88;7.07;;;537.80;2406.40;;;;;;4828044;29;20053;-85
2021/07/05 02:54:16;;;;;;;11.85;6.60;;;537.80;2406.40;;;;;;4825806;29;20041;-85
2021/07/05 02:56:42;;;;;;;13.13;7.07;;;537.60;2406.40;;;;;;4828270;29;20086;-85
2021/07/05 02:59:08;;;;;;;9.82;6.38;;;537.80;2406.40;;;;;;4828071;29;20120;-85
2021/07/05 03:01:33;;;;;;;12.50;7.30;;;537.90;2406.40;;;;;;4828202;29;20179;-85
2021/07/05 03:03:59;;;;;;;15.00;7.88;;;538.00;2406.40;;;;;;4828002;29;20397;-85
2021/07/05 03:06:25;;;;;;;8.93;6.65;;;538.00;2406.40;;;;;;4828082;29;20030;-85
2021/07/05 03:08:51;;;;;;;14.25;6.57;;;538.00;2406.40;;;;;;4827766;29;20431;-85
2021/07/05 03:11:18;;;;;;;8.77;6.50;;;538.00;2406.40;;;;;;4827025;29;20022;-84
2021/07/05 03:13:53;;;;;;;11.93;6.65;;;538.00;2406.40;;;;;;4827775;29;20037;-84
2021/07/05 03:16:19;;;;;;;12.30;7.68;;;538.00;2406.40;;;;;;4827939;29;20112;-85
2021/07/05 03:18:47;;;;;;;10.75;6.70;;;538.00;2406.40;;;;;;4828047;29;20209;-85
2021/07/05 03:21:16;;;;;;;12.80;6.95;;;538.00;2406.40;;;;;;4842751;29;20112;-85
2021/07/05 03:23:42;;;;;;;13.55;7.90;;;537.80;2406.40;;;;;;4827850;29;20030;-85
2021/07/05 03:26:11;;;;;;;12.15;7.97;;;512.80;2380.80;;;;;;4827430;29;20120;-85
2021/07/05 03:28:37;;;;;;;13.15;7.35;;;512.40;2380.80;;;;;;4827916;29;20018;-85
2021/07/05 03:31:02;;;;;;;14.43;8.48;;;512.30;2380.80;;;;;;4827712;29;20030;-85
2021/07/05 03:33:28;;;;;;;18.73;7.95;;;512.20;2380.80;;;;;;4827835;29;20053;-85
2021/07/05 03:35:57;;;;;;;15.75;7.80;;;512.60;2380.80;;;;;;4827616;29;20370;-85
2021/07/05 03:38:25;;;;;;;10.60;7.97;;;512.70;2380.80;;;;;;4827803;29;20026;-85
2021/07/05 03:40:51;;;;;;;16.45;9.27;;;512.80;2380.80;;;;;;4827682;29;20094;-85
2021/07/05 03:43:17;;;;;;;15.07;8.82;;;512.50;2380.80;;;;;;4827534;29;20041;-85
2021/07/05 03:45:54;;;;;;;12.23;8.10;;;512.70;2380.80;;;;;;4827893;29;20481;-85
2021/07/05 03:48:32;;;;;;;12.80;8.13;;;512.20;2380.80;;;;;;4826959;29;20041;-85
2021/07/05 03:50:58;;;;;;;15.25;8.32;;;512.50;2380.80;;;;;;4827623;29;20038;-85
2021/07/05 03:53:24;;;;;;;14.88;8.77;;;512.70;2380.80;;;;;;4827287;29;20022;-85
2021/07/05 03:55:53;;;;;;;20.50;9.25;;;512.80;2380.80;;;;;;4827328;29;20186;-85
2021/07/05 03:58:19;;;;;;;13.32;8.57;;;512.70;2380.80;;;;;;4827830;29;20029;-85
2021/07/05 04:00:46;;;;;;;15.30;9.75;;;512.40;2380.80;;;;;;4827761;29;20022;-85
2021/07/05 04:03:12;;;;;;;15.48;9.15;;;512.40;2380.80;;;;;;4827552;29;20025;-85
2021/07/05 04:05:40;;;;;;;16.52;8.45;;;512.60;2380.80;;;;;;4828021;29;20116;-85
2021/07/05 04:08:06;;;;;;;16.33;8.18;;;512.60;2380.80;;;;;;4827914;29;20022;-85
2021/07/05 04:10:33;;;;;;;12.05;7.85;;;512.60;2380.80;;;;;;4827653;29;20090;-85
2021/07/05 04:13:05;;;;;;;12.90;7.45;;;538.10;2406.40;;;;;;4827984;29;20030;-85
2021/07/05 04:15:31;;;;;;;16.02;7.53;;;512.70;2380.80;;;;;;4827585;29;20053;-85
2021/07/05 04:17:57;;;;;;;14.80;7.35;;;512.70;2380.80;;;;;;4827568;29;20490;-85
2021/07/05 04:20:24;;;;;;;13.18;7.05;;;512.70;2380.80;;;;;;4827395;29;20029;-85
2021/07/05 04:22:53;;;;;;;13.75;8.15;;;512.70;2380.80;;;;;;4830514;29;20040;-85
2021/07/05 04:25:26;;;;;;;15.10;7.93;;;512.60;2380.80;;;;;;4831056;29;20457;-86
2021/07/05 04:27:56;;;;;;;15.52;7.60;;;512.70;2380.80;;;;;;4831086;29;20382;-85
2021/07/05 04:30:22;;;;;;;14.82;7.70;;;512.60;2380.80;;;;;;4831152;29;20049;-85
2021/07/05 04:32:51;;;;;;;14.27;8.15;;;512.60;2380.80;;;;;;4830537;29;20363;-86
2021/07/05 04:35:21;;;;;;;14.23;7.70;;;512.30;2380.80;;;;;;4830936;29;20113;-85
2021/07/05 04:37:53;;;;;;;12.68;7.07;;;512.60;2380.80;;;;;;4830840;29;20057;-85
2021/07/05 04:40:27;;;;;;;13.02;7.55;;;512.60;2380.80;;;;;;4830910;29;20018;-85
2021/07/05 04:43:08;;;;;;;14.05;7.32;;;512.60;2380.80;;;;;;4830824;29;20037;-85
2021/07/05 04:46:15;;;;;;;;;;;;;;;;;;;;;
2021/07/05 04:49:13;;;;;;;;;;;;;;;;;;;;;
2021/07/05 04:51:59;;;;;;;13.02;7.80;;;512.70;2380.80;;;;;;4846279;29;20113;-86
2021/07/05 04:54:26;;;;;;;12.57;7.28;;;512.70;2380.80;;;;;;4830400;29;20050;-85
2021/07/05 05:08:57;;;;;;;14.27;7.45;;;512.80;2380.80;;;;;;5368173;24;20066;-83
2021/07/05 05:11:22;;;;;;;18.23;7.75;;;512.80;2380.80;;;;;;4811463;29;20050;-83
2021/07/05 05:13:48;;;;;;;13.45;7.43;;;512.90;2380.80;;;;;;4811748;29;20054;-83
2021/07/05 05:16:16;;;;;;;14.35;7.45;;;537.60;2406.40;;;;;;4811531;29;20033;-83
2021/07/05 05:18:42;;;;;;;14.45;7.95;;;537.60;2406.40;;;;;;4811440;29;20472;-84
2021/07/05 05:21:08;;;;;;;13.88;7.70;;;512.50;2380.80;;;;;;4811733;29;20110;-83
2021/07/05 05:23:34;;;;;;;11.35;7.47;;;537.60;2406.40;;;;;;4811552;29;20042;-83
2021/07/05 05:26:00;;;;;;;13.02;7.38;;;512.90;2380.80;;;;;;4811785;29;20034;-83
2021/07/05 05:28:26;;;;;;;13.60;8.10;;;537.60;2406.40;;;;;;4811763;29;20034;-84
2021/07/05 05:30:51;;;;;;;15.30;8.65;;;512.90;2380.80;;;;;;4811781;29;20121;-84
2021/07/05 05:33:17;;;;;;;13.38;8.10;;;512.90;2380.80;;;;;;4810949;29;20074;-83
2021/07/05 05:35:43;;;;;;;14.98;7.35;;;512.90;2380.80;;;;;;4811684;29;20420;-82
2021/07/05 05:38:09;;;;;;;19.00;7.85;;;537.60;2406.40;;;;;;4811272;29;20042;-84
2021/07/05 05:40:35;;;;;;;10.20;6.97;;;537.60;2406.40;;;;;;4810963;29;20030;-84
2021/07/05 05:43:01;;;;;;;14.55;7.93;;;537.70;2406.40;;;;;;4811064;29;20060;-84
2021/07/05 05:45:27;;;;;;;11.90;7.70;;;537.70;2406.40;;;;;;4811405;29;20030;-82
2021/07/05 05:48:39;;;;;;;11.13;7.18;;;537.70;2406.40;;;;;;4811059;29;20117;-85
2021/07/05 05:51:33;;;;;;;15.10;6.70;;;537.90;2406.40;;;;;;4811623;29;20030;-85
2021/07/05 05:53:59;;;;;;;13.77;7.30;;;537.90;2406.40;;;;;;4811210;29;20026;-85
2021/07/05 05:56:31;;;;;;;17.05;7.55;;;537.90;2406.40;;;;;;4811047;29;20033;-82
2021/07/05 05:59:01;;;;;;;19.02;8.07;;;537.80;2406.40;;;;;;4810743;29;20109;-84
2021/07/05 06:01:28;;;;;;;11.40;6.88;;;537.80;2406.40;;;;;;4811006;29;20121;-84
2021/07/05 06:03:59;;;;;;;12.30;7.47;;;538.00;2406.40;;;;;;4810784;29;20087;-85
2021/07/05 06:09:51;;;;;;;15.27;6.95;;;538.10;2406.40;;;;;;4826866;29;20050;-85
2021/07/05 06:12:41;;;;;;;17.50;7.70;;;538.00;2406.40;;;;;;4825778;29;20041;-84
2021/07/05 06:15:35;;;;;;;19.80;8.77;;;538.30;2406.40;;;;;;4810691;29;20039;-85
2021/07/05 06:18:30;;;;;;;41.55;11.10;;;538.40;2406.40;;;;;;4810557;29;20027;-85
2021/07/05 06:25:52;;;;;;;20.58;8.68;;;538.00;2406.40;;;;;;4752562;30;20612;-85
2021/07/05 06:41:55;;;;;;;14.07;7.88;;;538.50;2406.40;;;;;;4717374;30;20033;-84
2021/07/05 06:44:21;;;;;;;14.63;7.80;;;538.50;2406.40;;;;;;4716750;30;20036;-84
2021/07/05 06:46:47;;;;;;;13.27;9.40;;;563.40;2432.00;;;;;;4754735;30;20389;-84
2021/07/05 06:49:17;;;;;;;10.50;7.60;;;563.40;2432.00;;;;;;4801176;29;20031;-85
2021/07/05 06:51:49;;;;;;;15.52;8.70;;;563.30;2432.00;;;;;;4810118;29;20027;-85
2021/07/05 06:54:15;;;;;;;9.23;7.37;;;563.30;2432.00;;;;;;4810230;29;20030;-85
2021/07/05 07:02:33;;;;;;;16.98;9.73;;;563.50;2432.00;;;;;;5384181;24;20555;-84
2021/07/05 07:05:02;;;;;;;19.67;7.80;;;563.60;2432.00;;;;;;4828607;29;20427;-85
2021/07/05 07:07:34;;;;;;;9.02;6.72;;;563.70;2432.00;;;;;;4828173;29;20045;-86
2021/07/05 07:10:07;;;;;;;15.10;7.80;;;563.90;2432.00;;;;;;4828246;29;20085;-85
2021/07/05 07:12:38;;;;;;;14.38;7.75;;;563.70;2432.00;;;;;;4827983;29;20034;-85
2021/07/05 07:15:17;;;;;;;13.75;7.50;;;563.80;2432.00;;;;;;4827788;29;20089;-85
2021/07/05 07:20:29;;;;;;;9.13;6.60;;;588.80;2432.00;;;;;;4843913;29;20014;-85
2021/07/05 07:30:18;;;;;;;15.10;8.80;;;588.90;2432.00;;;;;;4827375;29;20064;-85
2021/07/05 07:32:53;;;;;;;12.60;8.10;;;588.80;2432.00;;;;;;4809235;29;20053;-85
2021/07/05 07:35:42;;;;;;;10.93;8.00;;;588.90;2432.00;;;;;;4808047;29;20038;-85
2021/07/05 07:38:11;;;;;;;13.73;6.68;;;588.90;2432.00;;;;;;4808377;29;20035;-85
2021/07/05 07:41:02;;;;;;;13.77;7.85;;;588.90;2432.00;;;;;;4808115;29;20027;-85
2021/07/05 08:27:20;;;;;;;11.05;7.28;;;614.60;2432.00;;;;;;5138854;23;19928;-84
2021/07/05 08:29:46;;;;;;;12.70;7.05;;;614.60;2432.00;;;;;;4826725;29;20183;-85
2021/07/05 08:32:12;;;;;;;17.40;7.75;;;614.70;2432.00;;;;;;4826637;29;20167;-85
2021/07/05 08:34:37;;;;;;;11.02;8.13;;;614.80;2432.00;;;;;;4830637;29;20135;-83
2021/07/05 08:37:03;;;;;;;15.02;7.07;;;614.90;2432.00;;;;;;4828836;29;20374;-83
2021/07/05 08:39:31;;;;;;;12.35;7.97;;;614.90;2432.00;;;;;;4833320;29;20022;-84
2021/07/05 08:42:00;;;;;;;13.52;7.63;;;614.90;2432.00;;;;;;4827048;29;20045;-84
2021/07/05 09:08:20;;;;;;;9.57;6.30;;;665.80;2432.00;;;;;;4734489;30;20406;-86
2021/07/05 09:11:56;;;;;;;15.63;7.05;;;665.90;2432.00;;;;;;4736647;30;20054;-88
2021/07/05 09:17:45;;;;;;;13.82;6.97;;;665.60;2432.00;;;;;;4807577;29;20488;-87
2021/07/05 09:20:21;;;;;;;11.93;6.60;;;640.90;2432.00;;;;;;4825561;29;20479;-82
2021/07/05 09:23:12;;;;;;;15.90;7.47;;;640.80;2432.00;;;;;;4829344;29;20061;-80
2021/07/05 09:25:41;;;;;;;8.07;5.90;;;640.90;2432.00;;;;;;4829645;29;20022;-80
2021/07/05 09:28:08;;;;;;;9.45;6.47;;;665.70;2432.00;;;;;;4852082;29;20066;-81
2021/07/05 09:30:43;;;;;;;9.30;5.95;;;666.00;2432.00;;;;;;4838086;29;20470;-80
2021/07/05 09:33:22;;;;;;;10.10;7.15;;;666.40;2432.00;;;;;;4837826;29;20042;-82
2021/07/05 09:35:51;;;;;;;10.90;8.48;;;691.60;2406.40;;;;;;4854777;29;20053;-82
2021/07/05 09:38:36;;;;;;;14.82;8.82;;;691.60;2406.40;;;;;;4854960;29;20026;-82
2021/07/05 09:41:28;;;;;;;13.48;9.77;;;691.90;2380.80;;;;;;4834715;29;20055;-84
2021/07/05 09:44:01;;;;;;;16.10;8.00;;;717.10;2355.20;;;;;;4822770;29;20478;-82
2021/07/05 09:46:48;;;;;;;11.93;6.93;;;717.50;2304.00;;;;;;4828492;29;20041;-81
2021/07/05 09:49:21;;;;;;;10.40;6.47;;;717.70;2252.80;;;;;;4822518;29;20069;-84
2021/07/05 09:52:04;;;;;;;8.75;6.10;;;717.70;2227.20;;;;;;4826491;29;20082;-84
2021/07/05 09:54:33;;;;;;;9.18;6.07;;;742.50;2227.20;;;;;;4828533;29;20082;-83
2021/07/05 09:56:59;;;;;;;11.70;5.60;;;742.40;2176.00;;;;;;4845388;29;20105;-82
2021/07/05 09:59:25;;;;;;;9.20;5.65;;;742.50;2176.00;;;;;;4829049;29;20186;-83
2021/07/05 10:01:53;;;;;;;13.95;7.68;;;742.70;2176.00;;;;;;4828333;29;20033;-81
2021/07/05 10:04:27;;;;;;;11.93;5.80;;;742.90;2150.40;;;;;;4828657;29;20102;-82
2021/07/05 10:07:00;;;;;;;7.65;5.43;;;742.90;2124.80;;;;;;4828596;29;20120;-81
2021/07/05 10:09:36;;;;;;;13.73;6.07;;;743.00;2150.40;;;;;;4831369;29;20120;-79
2021/07/05 10:12:23;;;;;;;8.23;5.18;;;743.20;2124.80;;;;;;4828225;29;20030;-80
2021/07/05 10:15:08;;;;;;;9.43;6.22;;;743.00;2073.60;;;;;;4845002;29;20084;-83
2021/07/05 10:17:39;;;;;;;8.13;5.57;;;743.30;2099.20;;;;;;4844889;29;20030;-85
2021/07/05 10:20:09;;;;;;;9.38;7.00;;;768.40;2073.60;;;;;;4844683;29;20448;-82
2021/07/05 10:22:35;;;;;;;9.38;7.32;;;768.80;2022.40;;;;;;4828428;29;20105;-82
2021/07/05 10:25:02;;;;;;;12.45;6.65;;;793.60;1971.20;;;;;;4828316;29;20424;-86
2021/07/05 10:27:34;;;;;;;8.25;5.28;;;793.80;1996.80;;;;;;4832420;29;20026;-86
2021/07/05 10:30:08;;;;;;;9.48;5.55;;;793.60;1971.20;;;;;;4831629;29;20474;-86
2021/07/05 10:32:34;;;;;;;8.02;4.40;;;794.00;1920.00;;;;;;4828857;29;20049;-86
2021/07/05 10:35:02;;;;;;;10.95;5.95;;;794.10;1868.80;;;;;;4830744;29;20022;-86
2021/07/05 10:37:41;;;;;;;7.70;4.53;;;794.30;1920.00;;;;;;4828694;29;20034;-86
2021/07/05 10:40:26;;;;;;;11.55;5.00;;;819.30;1868.80;;;;;;4828342;29;20030;-88
2021/07/05 10:43:37;;;;;;;6.50;4.55;;;819.60;1868.80;;;;;;4828269;29;20041;-87
2021/07/05 10:46:31;;;;;;;9.68;5.15;;;819.80;1868.80;;;;;;4843778;29;20399;-88
2021/07/05 10:56:16;;;;;;;7.97;4.50;;;820.00;1792.00;;;;;;4768062;30;20068;-87
2021/07/05 10:58:48;;;;;;;6.95;3.97;;;820.10;1740.80;;;;;;4777575;29;20020;-85
2021/07/05 11:01:50;;;;;;;7.65;4.80;;;794.50;1766.40;;;;;;4851228;29;20010;-86
2021/07/05 11:05:09;;;;;;;7.07;4.82;;;794.50;1766.40;;;;;;4851785;29;20101;-86
2021/07/05 11:11:34;;;;;;;6.40;4.97;;;819.70;1792.00;;;;;;4789262;29;20035;-86
2021/07/05 11:14:21;;;;;;;9.88;5.45;;;844.80;1766.40;;;;;;4773421;30;20122;-83
2021/07/05 11:16:59;;;;;;;9.88;7.35;;;820.10;1715.20;;;;;;4772418;30;20061;-87
2021/07/05 11:20:07;;;;;;;8.85;5.18;;;844.90;1792.00;;;;;;4822607;29;20037;-85
2021/07/05 11:26:50;;;;;;;7.55;4.47;;;844.90;1689.60;;;;;;4787041;29;20099;-85
2021/07/05 11:33:12;;;;;;;6.60;4.43;;;845.40;1689.60;;;;;;4769960;30;20050;-84
2021/07/05 11:39:50;;;;;;;9.32;4.18;;;845.20;1664.00;;;;;;4824199;29;20064;-85
2021/07/05 11:42:31;;;;;;;10.07;4.47;;;845.40;1638.40;;;;;;4754448;30;20065;-86
2021/07/05 11:45:06;;;;;;;8.50;4.15;;;844.90;1689.60;;;;;;4807726;29;20037;-85
2021/07/05 11:47:38;;;;;;;5.88;3.53;;;845.10;1638.40;;;;;;4807829;29;20018;-81
2021/07/05 11:50:21;;;;;;;8.38;4.10;;;844.80;1664.00;;;;;;4808096;29;20045;-83
2021/07/05 11:52:52;;;;;;;8.88;4.90;;;820.00;1664.00;;;;;;4808074;29;20030;-83
2021/07/05 11:55:20;;;;;;;8.15;3.70;;;820.10;1664.00;;;;;;4822980;29;20155;-82
2021/07/05 11:57:53;;;;;;;6.80;4.13;;;844.90;1638.40;;;;;;4807820;29;20534;-82
2021/07/05 12:00:31;;;;;;;5.60;4.05;;;845.10;1638.40;;;;;;4817752;29;20503;-83
2021/07/05 12:03:01;;;;;;;6.47;3.90;;;845.50;1612.80;;;;;;4844057;29;20037;-84
2021/07/05 12:05:27;;;;;;;7.95;3.58;;;845.50;1587.20;;;;;;4826580;29;20026;-83
2021/07/05 12:08:08;;;;;;;7.43;3.90;;;845.50;1587.20;;;;;;4826781;29;20033;-81
2021/07/05 12:10:36;;;;;;;6.25;3.78;;;845.40;1587.20;;;;;;4843319;29;20030;-84
2021/07/05 12:13:21;;;;;;;5.55;3.63;;;845.10;1612.80;;;;;;4826698;29;20030;-85
2021/07/05 12:15:55;;;;;;;9.20;4.03;;;845.30;1561.60;;;;;;4826503;29;20163;-83
2021/07/05 12:18:22;;;;;;;6.45;3.38;;;845.20;1587.20;;;;;;4826256;29;20379;-82
2021/07/05 12:21:05;;;;;;;5.53;3.17;;;845.40;1587.20;;;;;;4826445;29;20098;-81
2021/07/05 12:23:36;;;;;;;5.22;2.75;;;870.40;1536.00;;;;;;4826484;29;20045;-82
2021/07/05 12:26:12;;;;;;;4.87;2.20;;;845.60;1587.20;;;;;;4826444;29;20452;-83
2021/07/05 12:29:02;;;;;;;4.93;3.00;;;844.90;1561.60;;;;;;4826008;29;20073;-83
2021/07/05 12:31:28;;;;;;;8.68;4.60;;;819.60;1612.80;;;;;;4841648;29;20022;-84
2021/07/05 12:33:54;;;;;;;8.55;5.78;;;819.50;1612.80;;;;;;4826319;29;20026;-83
2021/07/05 12:36:20;;;;;;;8.68;5.75;;;819.50;1638.40;;;;;;4826636;29;20022;-83
2021/07/05 12:39:05;;;;;;;9.65;6.47;;;819.40;1664.00;;;;;;4826090;29;20037;-82
2021/07/05 12:41:35;;;;;;;10.13;8.13;;;819.30;1664.00;;;;;;4823281;29;20030;-84
2021/07/05 12:44:15;;;;;;;15.55;6.95;;;794.50;1689.60;;;;;;4828863;29;20037;-83
2021/07/05 12:46:41;;;;;;;9.98;7.72;;;794.50;1689.60;;;;;;4845747;29;20041;-83
2021/07/05 12:49:08;;;;;;;7.93;4.75;;;794.20;1715.20;;;;;;4828721;29;20010;-84
2021/07/05 12:51:36;;;;;;;8.52;7.03;;;794.00;1715.20;;;;;;4845559;29;20474;-81
2021/07/05 12:54:20;;;;;;;7.82;5.25;;;793.90;1740.80;;;;;;4829374;29;20124;-83
2021/07/05 12:56:46;;;;;;;8.15;4.40;;;793.80;1766.40;;;;;;4829045;29;20030;-84
2021/07/05 12:59:19;;;;;;;5.80;3.60;;;793.70;1766.40;;;;;;4828932;29;20036;-84
2021/07/05 13:01:45;;;;;;;7.40;3.33;;;768.90;1766.40;;;;;;4828707;29;20386;-82
2021/07/05 13:04:13;;;;;;;6.35;3.55;;;768.70;1766.40;;;;;;4845550;29;20842;-86
2021/07/05 13:06:50;;;;;;;7.40;4.00;;;768.60;1817.60;;;;;;4828673;29;20030;-82
2021/07/05 13:09:21;;;;;;;9.20;4.90;;;768.40;1894.40;;;;;;4828763;29;20479;-82
2021/07/05 13:11:50;;;;;;;8.40;5.15;;;768.30;1920.00;;;;;;4845459;29;20106;-82
2021/07/05 13:14:25;;;;;;;9.70;6.13;;;768.10;1894.40;;;;;;4828654;29;20678;-83
2021/07/05 13:17:19;;;;;;;13.75;5.55;;;768.00;1894.40;;;;;;4828401;29;20524;-80
2021/07/05 13:19:48;;;;;;;7.68;4.55;;;743.30;1894.40;;;;;;4845702;29;20033;-82
2021/07/05 13:22:17;;;;;;;8.32;4.32;;;743.20;1920.00;;;;;;4828783;29;20033;-81
2021/07/05 13:24:52;;;;;;;6.15;4.15;;;743.20;1920.00;;;;;;4828452;29;20117;-82
2021/07/05 13:27:28;;;;;;;6.20;3.60;;;743.20;1945.60;;;;;;4828624;29;20030;-84
2021/07/05 13:29:55;;;;;;;6.90;3.92;;;743.10;1920.00;;;;;;4845638;29;20038;-83
2021/07/05 13:32:24;;;;;;;7.22;5.05;;;743.20;1945.60;;;;;;4828328;29;20041;-82
2021/07/05 13:35:10;;;;;;;8.82;4.13;;;743.20;1945.60;;;;;;4844470;29;20037;-85
2021/07/05 13:37:47;;;;;;;6.22;3.85;;;743.30;1945.60;;;;;;4828138;29;20037;-81
2021/07/05 13:40:17;;;;;;;8.23;4.80;;;768.00;1945.60;;;;;;4844050;29;20026;-83
2021/07/05 13:42:49;;;;;;;21.38;11.18;;;768.10;1945.60;;;;;;4828255;29;20037;-82
2021/07/05 13:45:19;;;;;;;23.90;11.30;;;768.10;1945.60;;;;;;4828808;29;20025;-81
2021/07/05 13:47:46;;;;;;;16.83;8.55;;;768.10;1920.00;;;;;;4827712;29;20086;-82
2021/07/05 13:50:14;;;;;;;14.25;6.75;;;768.10;1920.00;;;;;;4844557;29;20057;-82
2021/07/05 13:52:55;;;;;;;12.40;6.18;;;768.00;1894.40;;;;;;4828137;29;20030;-80
2021/07/05 13:55:31;;;;;;;10.38;5.28;;;768.10;1920.00;;;;;;4826891;29;20054;-82
2021/07/05 13:58:14;;;;;;;13.38;6.18;;;768.00;1894.40;;;;;;4844304;29;20051;-82
2021/07/05 14:00:56;;;;;;;14.63;7.47;;;768.00;1868.80;;;;;;4827724;29;20049;-82
2021/07/05 14:03:23;;;;;;;8.57;5.10;;;743.10;1894.40;;;;;;4842970;29;20034;-81
2021/07/05 14:05:55;;;;;;;10.27;4.93;;;743.10;1868.80;;;;;;4827492;29;20025;-82
2021/07/05 14:08:22;;;;;;;8.73;4.72;;;743.10;1868.80;;;;;;4843780;29;20026;-85
2021/07/05 14:10:51;;;;;;;7.53;4.97;;;743.10;1920.00;;;;;;4828134;29;20026;-83
2021/07/05 14:13:21;;;;;;;13.85;7.60;;;743.00;1971.20;;;;;;4827826;29;20034;-83
2021/07/05 14:15:49;;;;;;;7.43;4.72;;;743.00;2022.40;;;;;;4827225;29;20078;-84
2021/07/05 14:18:15;;;;;;;7.20;4.50;;;743.00;2022.40;;;;;;4827726;29;20459;-83
2021/07/05 14:20:42;;;;;;;9.10;5.07;;;742.90;2048.00;;;;;;4844159;29;20022;-81
2021/07/05 14:23:10;;;;;;;7.05;4.15;;;742.80;2048.00;;;;;;4843645;29;20030;-83
2021/07/05 14:25:37;;;;;;;10.32;6.47;;;742.80;2048.00;;;;;;4827716;29;20690;-81
2021/07/05 14:28:04;;;;;;;9.73;6.35;;;742.80;2048.00;;;;;;4843504;29;20440;-80
2021/07/05 14:30:31;;;;;;;10.65;4.97;;;742.60;2048.00;;;;;;4843147;29;20467;-81
2021/07/05 14:32:57;;;;;;;10.65;5.63;;;742.70;2073.60;;;;;;4827449;29;20030;-84
2021/07/05 14:35:24;;;;;;;10.02;4.78;;;742.50;2201.60;;;;;;4827703;29;20059;-82
2021/07/05 14:37:51;;;;;;;13.63;4.47;;;742.40;2201.60;;;;;;4826972;29;20061;-80
2021/07/05 14:40:18;;;;;;;10.70;4.75;;;717.60;2176.00;;;;;;4843511;29;20467;-84
2021/07/05 14:42:43;;;;;;;10.43;4.80;;;717.30;2278.40;;;;;;4827585;29;20378;-82
2021/07/05 14:45:11;;;;;;;7.80;5.57;;;716.90;2380.80;;;;;;4843800;29;20037;-82
2021/07/05 14:47:39;;;;;;;9.65;5.05;;;692.00;2432.00;;;;;;4826994;29;20067;-90
2021/07/05 14:50:07;;;;;;;11.70;5.28;;;691.80;2432.00;;;;;;4843750;29;20030;-82
2021/07/05 14:52:35;;;;;;;7.82;4.63;;;691.60;2432.00;;;;;;4843079;29;20711;-80
2021/07/05 14:55:03;;;;;;;10.75;8.00;;;691.30;2432.00;;;;;;4827274;29;20121;-82
2021/07/05 14:57:28;;;;;;;10.43;4.93;;;691.30;2432.00;;;;;;4827366;29;20034;-81
2021/07/05 14:59:54;;;;;;;7.43;5.32;;;691.20;2432.00;;;;;;4843577;29;20527;-81
2021/07/05 15:02:20;;;;;;;7.32;5.18;;;666.30;2432.00;;;;;;4843408;29;20059;-81
2021/07/05 15:04:46;;;;;;;8.73;4.78;;;666.20;2432.00;;;;;;4843441;29;20030;-83
2021/07/05 15:07:11;;;;;;;9.15;5.03;;;666.10;2432.00;;;;;;4826685;29;20030;-82
2021/07/05 15:09:37;;;;;;;6.88;5.35;;;666.10;2432.00;;;;;;4843326;29;20045;-80
2021/07/05 15:12:04;;;;;;;9.05;5.80;;;666.00;2432.00;;;;;;4826957;29;20383;-84
2021/07/05 15:14:30;;;;;;;6.13;4.93;;;666.00;2432.00;;;;;;4827032;29;20067;-82